createdAt,value
2023-04-22T00:02:16.794Z,3.30
2023-04-22T00:04:46.256Z,3.80
2023-04-22T00:07:15.134Z,10.90
2023-04-22T00:09:43.003Z,10.17
2023-04-22T00:12:11.665Z,7.30
2023-04-22T00:14:38.761Z,7.57
2023-04-22T00:17:07.080Z,6.10
2023-04-22T00:19:34.374Z,5.43
2023-04-22T00:22:01.125Z,6.17
2023-04-22T00:24:27.779Z,5.00
2023-04-22T00:26:54.509Z,4.27
2023-04-22T00:29:21.290Z,4.13
2023-04-22T00:31:48.144Z,4.60
2023-04-22T00:34:17.606Z,3.80
2023-04-22T00:36:44.505Z,4.70
2023-04-22T00:39:12.108Z,4.07
2023-04-22T00:41:39.733Z,4.30
2023-04-22T00:44:10.975Z,4.10
2023-04-22T00:46:40.929Z,4.40
2023-04-22T00:49:08.653Z,4.33
2023-04-22T00:51:35.578Z,3.43
2023-04-22T00:54:03.343Z,4.07
2023-04-22T00:56:31.290Z,4.37
2023-04-22T00:58:58.826Z,4.47
2023-04-22T01:01:26.305Z,3.80
2023-04-22T01:03:53.874Z,4.10
2023-04-22T01:06:22.151Z,3.90
2023-04-22T01:08:48.917Z,4.47
2023-04-22T01:11:16.080Z,4.23
2023-04-22T01:13:42.866Z,4.13
2023-04-22T01:16:10.678Z,3.90
2023-04-22T01:18:37.569Z,4.00
2023-04-22T01:21:04.932Z,4.40
2023-04-22T01:23:31.667Z,4.37
2023-04-22T01:25:58.531Z,4.30
2023-04-22T01:28:26.008Z,3.90
2023-04-22T01:30:55.504Z,4.50
2023-04-22T01:33:22.267Z,4.40
2023-04-22T01:35:48.969Z,3.90
2023-04-22T01:38:15.672Z,4.40
2023-04-22T01:40:42.358Z,3.83
2023-04-22T01:43:09.202Z,4.33
2023-04-22T01:45:36.881Z,4.47
2023-04-22T01:48:04.803Z,4.80
2023-04-22T01:50:33.208Z,4.30
2023-04-22T01:53:00.199Z,4.57
2023-04-22T01:55:26.884Z,4.27
2023-04-22T01:57:53.546Z,4.60
2023-04-22T02:00:20.221Z,4.27
2023-04-22T02:02:48.346Z,3.83
2023-04-22T02:05:15.769Z,4.03
2023-04-22T02:07:43.102Z,4.87
2023-04-22T02:10:11.538Z,4.53
2023-04-22T02:12:38.768Z,4.67
2023-04-22T02:15:06.050Z,4.77
2023-04-22T02:17:34.093Z,4.30
2023-04-22T02:20:00.818Z,3.87
2023-04-22T02:22:30.304Z,5.10
2023-04-22T02:24:56.978Z,4.57
2023-04-22T02:27:23.750Z,4.60
2023-04-22T02:29:51.321Z,4.50
2023-04-22T02:32:17.988Z,4.00
2023-04-22T02:34:44.773Z,4.67
2023-04-22T02:37:11.463Z,4.23
2023-04-22T02:39:38.500Z,4.33
2023-04-22T02:42:06.269Z,4.10
2023-04-22T02:44:32.984Z,3.80
2023-04-22T02:46:59.720Z,3.97
2023-04-22T02:49:26.424Z,4.10
2023-04-22T02:51:53.250Z,3.10
2023-04-22T02:54:19.903Z,3.60
2023-04-22T02:56:47.404Z,4.33
2023-04-22T02:59:14.772Z,3.57
2023-04-22T03:01:41.624Z,4.20
2023-04-22T03:04:14.277Z,4.07
2023-04-22T03:06:41.351Z,3.30
2023-04-22T03:09:08.380Z,4.23
2023-04-22T03:11:35.091Z,4.13
2023-04-22T03:14:03.309Z,3.40
2023-04-22T03:16:30.356Z,3.83
2023-04-22T03:18:58.945Z,4.40
2023-04-22T03:21:25.653Z,3.70
2023-04-22T03:23:52.919Z,3.83
2023-04-22T03:26:19.748Z,3.90
2023-04-22T03:28:46.523Z,4.40
2023-04-22T03:31:13.196Z,4.00
2023-04-22T03:33:40.716Z,3.70
2023-04-22T03:36:15.780Z,3.53
2023-04-22T03:38:43.540Z,3.50
2023-04-22T03:41:10.646Z,3.70
2023-04-22T03:43:40.843Z,4.23
2023-04-22T03:46:09.366Z,3.80
2023-04-22T03:48:40.170Z,4.00
2023-04-22T03:51:12.599Z,3.60
2023-04-22T03:53:40.842Z,3.50
2023-04-22T03:56:09.328Z,3.27
2023-04-22T03:58:40.073Z,3.37
2023-04-22T04:01:08.215Z,3.53
2023-04-22T04:03:36.630Z,3.17
2023-04-22T04:06:04.196Z,3.10
2023-04-22T04:08:30.926Z,2.93
2023-04-22T04:10:59.224Z,3.50
2023-04-22T04:13:26.643Z,3.40
2023-04-22T04:16:22.841Z,3.40
2023-04-22T04:18:55.489Z,3.20
2023-04-22T04:21:24.382Z,3.13
2023-04-22T04:23:52.598Z,2.93
2023-04-22T04:26:25.039Z,2.53
2023-04-22T04:28:57.373Z,3.30
2023-04-22T04:31:24.814Z,2.70
2023-04-22T04:33:52.957Z,3.10
2023-04-22T04:36:20.009Z,2.90
2023-04-22T04:38:47.712Z,2.73
2023-04-22T04:41:15.500Z,2.63
2023-04-22T04:43:42.930Z,2.70
2023-04-22T04:46:21.658Z,2.90
2023-04-22T04:48:50.567Z,3.30
2023-04-22T04:51:20.218Z,3.03
2023-04-22T04:53:54.813Z,2.63
2023-04-22T04:56:22.024Z,2.77
2023-04-22T04:58:49.497Z,2.47
2023-04-22T05:01:19.718Z,2.50
2023-04-22T05:03:47.734Z,3.20
2023-04-22T05:06:17.004Z,2.80
2023-04-22T05:08:48.476Z,3.07
2023-04-22T05:11:15.251Z,3.13
2023-04-22T05:13:44.895Z,3.20
2023-04-22T05:16:17.950Z,3.07
2023-04-22T05:18:45.156Z,2.57
2023-04-22T05:21:15.919Z,2.70
2023-04-22T05:23:43.850Z,2.67
2023-04-22T05:26:10.578Z,2.87
2023-04-22T05:28:40.594Z,2.80
2023-04-22T05:31:07.315Z,2.40
2023-04-22T05:33:34.165Z,2.43
2023-04-22T05:36:00.879Z,2.33
2023-04-22T05:38:28.259Z,3.40
2023-04-22T05:40:56.175Z,2.60
2023-04-22T05:43:23.837Z,2.87
2023-04-22T05:45:59.803Z,2.77
2023-04-22T05:48:26.538Z,2.87
2023-04-22T05:50:58.299Z,2.67
2023-04-22T05:53:27.786Z,2.20
2023-04-22T05:55:55.309Z,2.37
2023-04-22T05:58:23.408Z,2.67
2023-04-22T06:00:53.279Z,4.20
2023-04-22T06:03:40.333Z,2.67
2023-04-22T06:06:07.996Z,2.60
2023-04-22T06:08:34.708Z,2.40
2023-04-22T06:11:01.389Z,2.33
2023-04-22T06:13:30.888Z,2.50
2023-04-22T06:15:57.776Z,2.40
2023-04-22T06:18:26.514Z,2.27
2023-04-22T06:20:54.861Z,2.53
2023-04-22T06:23:22.196Z,2.50
2023-04-22T06:25:48.908Z,2.03
2023-04-22T06:28:16.423Z,2.00
2023-04-22T06:30:44.490Z,3.30
2023-04-22T06:33:11.411Z,2.37
2023-04-22T06:35:38.617Z,1.93
2023-04-22T06:38:05.704Z,2.30
2023-04-22T06:40:40.240Z,1.87
2023-04-22T06:43:23.680Z,2.20
2023-04-22T06:46:08.827Z,2.70
2023-04-22T06:48:47.675Z,3.23
2023-04-22T06:51:20.715Z,2.70
2023-04-22T06:53:47.443Z,2.43
2023-04-22T06:56:16.025Z,3.53
2023-04-22T06:58:42.780Z,3.07
2023-04-22T07:01:09.487Z,2.10
2023-04-22T07:03:38.182Z,2.00
2023-04-22T07:06:09.458Z,2.73
2023-04-22T07:08:36.266Z,2.17
2023-04-22T07:11:03.100Z,2.30
2023-04-22T07:13:42.377Z,2.60
2023-04-22T07:16:09.088Z,5.13
2023-04-22T07:18:36.571Z,2.70
2023-04-22T07:21:03.310Z,3.10
2023-04-22T07:23:29.957Z,3.00
2023-04-22T07:25:56.756Z,2.30
2023-04-22T07:28:23.404Z,3.43
2023-04-22T07:30:50.052Z,2.13
2023-04-22T07:33:16.720Z,2.83
2023-04-22T07:35:43.358Z,2.13
2023-04-22T07:38:11.167Z,2.27
2023-04-22T07:40:39.401Z,11.47
2023-04-22T07:43:06.100Z,1.70
2023-04-22T07:45:33.320Z,2.37
2023-04-22T07:48:00.678Z,2.10
2023-04-22T07:50:27.995Z,1.83
2023-04-22T07:52:55.020Z,2.20
2023-04-22T07:55:21.767Z,2.10
2023-04-22T07:57:48.499Z,1.60
2023-04-22T08:00:15.667Z,2.00
2023-04-22T08:02:43.937Z,2.30
2023-04-22T08:05:11.549Z,2.40
2023-04-22T08:07:38.314Z,2.00
2023-04-22T08:10:06.022Z,2.10
2023-04-22T08:12:32.701Z,2.10
2023-04-22T08:14:59.369Z,2.00
2023-04-22T08:17:26.684Z,1.90
2023-04-22T08:19:53.408Z,1.83
2023-04-22T08:22:20.021Z,2.30
2023-04-22T08:24:47.099Z,2.03
2023-04-22T08:27:13.765Z,2.00
2023-04-22T08:29:41.107Z,2.03
2023-04-22T08:32:08.070Z,1.90
2023-04-22T08:34:34.763Z,2.33
2023-04-22T08:37:01.411Z,2.27
2023-04-22T08:39:28.164Z,2.10
2023-04-22T08:41:56.191Z,2.47
2023-04-22T08:44:23.320Z,1.60
2023-04-22T08:46:51.619Z,1.73
2023-04-22T08:49:19.418Z,1.77
2023-04-22T08:51:46.365Z,2.27
2023-04-22T08:54:13.355Z,2.20
2023-04-22T08:56:43.235Z,1.77
2023-04-22T08:59:11.466Z,2.03
2023-04-22T09:01:39.910Z,2.07
2023-04-22T09:04:09.591Z,1.60
2023-04-22T09:06:38.594Z,1.50
2023-04-22T09:09:05.358Z,1.53
2023-04-22T09:11:32.947Z,2.23
2023-04-22T09:13:59.596Z,2.27
2023-04-22T09:16:26.351Z,1.70
2023-04-22T09:18:53.027Z,1.70
2023-04-22T09:21:20.072Z,1.73
2023-04-22T09:23:51.108Z,1.67
2023-04-22T09:26:24.282Z,1.83
2023-04-22T09:28:58.201Z,2.10
2023-04-22T09:31:25.621Z,1.80
2023-04-22T09:34:00.781Z,2.17
2023-04-22T09:36:34.137Z,1.97
2023-04-22T09:39:04.741Z,1.30
2023-04-22T09:41:41.135Z,1.80
2023-04-22T09:44:15.173Z,1.90
2023-04-22T09:46:43.353Z,1.93
2023-04-22T09:49:10.897Z,1.43
2023-04-22T09:51:42.165Z,1.90
2023-04-22T09:54:10.555Z,1.43
2023-04-22T09:56:43.548Z,2.00
2023-04-22T09:59:11.964Z,2.40
2023-04-22T10:01:41.240Z,1.80
2023-04-22T10:04:14.651Z,1.70
2023-04-22T10:06:42.417Z,1.90
2023-04-22T10:09:09.655Z,1.97
2023-04-22T10:11:37.578Z,1.70
2023-04-22T10:14:05.293Z,1.90
2023-04-22T10:16:34.351Z,1.93
2023-04-22T10:19:04.417Z,1.77
2023-04-22T10:21:32.752Z,1.60
2023-04-22T10:24:00.275Z,2.00
2023-04-22T10:26:58.895Z,1.97
2023-04-22T10:29:28.058Z,1.80
2023-04-22T10:31:59.343Z,1.70
2023-04-22T10:34:26.302Z,2.20
2023-04-22T10:37:01.565Z,1.60
2023-04-22T10:39:29.506Z,2.30
2023-04-22T10:42:16.997Z,2.00
2023-04-22T10:44:59.772Z,1.60
2023-04-22T10:47:28.984Z,2.07
2023-04-22T10:50:16.785Z,2.20
2023-04-22T10:52:47.597Z,2.17
2023-04-22T10:55:14.349Z,2.30
2023-04-22T10:57:43.105Z,1.70
2023-04-22T11:00:52.291Z,1.83
2023-04-22T11:03:27.356Z,2.27
2023-04-22T11:06:22.042Z,2.47
2023-04-22T11:08:50.216Z,2.70
2023-04-22T11:11:18.591Z,1.67
2023-04-22T11:13:50.230Z,2.13
2023-04-22T11:16:18.165Z,2.50
2023-04-22T11:18:47.028Z,2.00
2023-04-22T11:21:15.101Z,2.20
2023-04-22T11:23:51.936Z,2.10
2023-04-22T11:26:19.199Z,2.40
2023-04-22T11:28:47.274Z,2.17
2023-04-22T11:31:15.077Z,1.90
2023-04-22T11:33:41.892Z,2.40
2023-04-22T11:36:12.824Z,2.10
2023-04-22T11:38:39.510Z,2.53
2023-04-22T11:41:06.203Z,2.50
2023-04-22T11:43:32.912Z,2.57
2023-04-22T11:45:59.603Z,1.83
2023-04-22T11:48:26.303Z,2.00
2023-04-22T11:51:13.810Z,1.90
2023-04-22T11:53:51.170Z,2.83
2023-04-22T11:56:17.795Z,1.90
2023-04-22T11:58:44.443Z,2.30
2023-04-22T12:01:14.095Z,2.07
2023-04-22T12:03:40.923Z,2.40
2023-04-22T12:06:07.716Z,2.00
2023-04-22T12:08:39.667Z,1.80
2023-04-22T12:11:10.412Z,2.10
2023-04-22T12:13:36.993Z,2.10
2023-04-22T12:16:05.487Z,1.97
2023-04-22T12:18:35.934Z,1.90
2023-04-22T12:21:09.725Z,2.17
2023-04-22T12:23:53.153Z,2.63
2023-04-22T12:26:23.732Z,1.70
2023-04-22T12:28:53.772Z,2.23
2023-04-22T12:31:21.443Z,2.17
2023-04-22T12:33:48.222Z,2.40
2023-04-22T12:36:15.380Z,2.40
2023-04-22T12:38:42.054Z,2.40
2023-04-22T12:41:09.444Z,2.93
2023-04-22T12:43:36.832Z,2.40
2023-04-22T12:46:04.305Z,2.67
2023-04-22T12:48:31.474Z,2.40
2023-04-22T12:50:58.556Z,2.53
2023-04-22T12:53:29.035Z,2.50
2023-04-22T12:55:55.966Z,3.40
2023-04-22T12:58:22.748Z,2.30
2023-04-22T13:00:49.392Z,2.43
2023-04-22T13:03:16.603Z,2.33
2023-04-22T13:05:45.203Z,2.60
2023-04-22T13:08:11.932Z,2.20
2023-04-22T13:10:38.832Z,2.60
2023-04-22T13:13:16.772Z,2.87
2023-04-22T13:15:45.453Z,2.47
2023-04-22T13:18:12.254Z,2.63
2023-04-22T13:20:39.929Z,2.67
2023-04-22T13:23:06.604Z,2.70
2023-04-22T13:25:33.351Z,3.00
2023-04-22T13:28:00.127Z,2.43
2023-04-22T13:30:26.819Z,2.97
2023-04-22T13:32:53.521Z,3.10
2023-04-22T13:35:20.689Z,3.70
2023-04-22T13:37:48.544Z,2.50
2023-04-22T13:40:15.357Z,4.00
2023-04-22T13:42:44.228Z,2.33
2023-04-22T13:45:11.461Z,2.57
2023-04-22T13:47:38.106Z,3.20
2023-04-22T13:50:06.245Z,2.30
2023-04-22T13:52:33.794Z,2.57
2023-04-22T13:55:00.426Z,2.40
2023-04-22T13:57:27.381Z,2.13
2023-04-22T13:59:54.704Z,2.20
2023-04-22T14:02:21.518Z,2.60
2023-04-22T14:04:48.321Z,2.57
2023-04-22T14:07:14.991Z,2.60
2023-04-22T14:09:42.116Z,1.90
2023-04-22T14:12:11.094Z,2.77
2023-04-22T14:14:38.007Z,2.07
2023-04-22T14:17:04.699Z,2.50
2023-04-22T14:19:31.681Z,2.17
2023-04-22T14:21:58.362Z,2.40
2023-04-22T14:24:25.538Z,2.87
2023-04-22T14:26:52.666Z,2.43
2023-04-22T14:29:19.586Z,2.30
2023-04-22T14:31:46.342Z,2.70
2023-04-22T14:34:13.180Z,2.50
2023-04-22T14:36:40.141Z,2.97
2023-04-22T14:39:06.827Z,3.13
2023-04-22T14:41:33.550Z,2.70
2023-04-22T14:44:00.225Z,2.27
2023-04-22T14:46:26.989Z,2.70
2023-04-22T14:48:54.034Z,2.93
2023-04-22T14:51:20.789Z,3.00
2023-04-22T14:53:48.081Z,3.43
2023-04-22T14:56:14.904Z,3.57
2023-04-22T14:58:41.608Z,4.00
2023-04-22T15:01:08.413Z,3.30
2023-04-22T15:03:36.157Z,2.77
2023-04-22T15:06:03.193Z,3.43
2023-04-22T15:08:30.316Z,2.70
2023-04-22T15:10:59.451Z,3.37
2023-04-22T15:13:26.136Z,2.73
2023-04-22T15:15:52.841Z,3.30
2023-04-22T15:18:19.604Z,3.37
2023-04-22T15:20:46.276Z,4.17
2023-04-22T15:23:12.893Z,5.30
2023-04-22T15:25:39.805Z,5.40
2023-04-22T15:28:06.497Z,4.57
2023-04-22T15:30:33.191Z,4.03
2023-04-22T15:33:00.502Z,3.10
2023-04-22T15:35:27.186Z,2.97
2023-04-22T15:37:54.202Z,3.00
2023-04-22T15:40:20.842Z,3.30
2023-04-22T15:42:47.547Z,3.87
2023-04-22T15:45:14.768Z,3.67
2023-04-22T15:47:41.772Z,2.60
2023-04-22T15:50:09.986Z,3.30
2023-04-22T15:52:37.993Z,3.23
2023-04-22T15:55:07.416Z,3.27
2023-04-22T15:57:34.938Z,3.20
2023-04-22T16:00:11.177Z,2.93
2023-04-22T16:02:43.611Z,2.60
2023-04-22T16:05:14.371Z,2.87
2023-04-22T16:07:41.243Z,3.00
2023-04-22T16:10:08.998Z,3.10
2023-04-22T16:12:35.706Z,2.87
2023-04-22T16:15:02.381Z,2.90
2023-04-22T16:17:30.393Z,2.70
2023-04-22T16:19:57.104Z,2.97
2023-04-22T16:22:23.814Z,2.67
2023-04-22T16:24:51.190Z,2.80
2023-04-22T16:27:19.030Z,3.63
2023-04-22T16:29:46.051Z,3.10
2023-04-22T16:32:13.037Z,3.37
2023-04-22T16:34:39.692Z,3.00
2023-04-22T16:37:06.758Z,3.40
2023-04-22T16:39:33.716Z,3.80
2023-04-22T16:42:02.743Z,3.50
2023-04-22T16:44:30.493Z,3.50
2023-04-22T16:46:57.776Z,3.70
2023-04-22T16:49:25.386Z,3.83
2023-04-22T16:51:52.141Z,3.10
2023-04-22T16:54:18.779Z,3.37
2023-04-22T16:56:45.539Z,3.20
2023-04-22T16:59:12.209Z,3.87
2023-04-22T17:01:40.599Z,3.83
2023-04-22T17:04:08.716Z,3.80
2023-04-22T17:06:36.580Z,3.63
2023-04-22T17:09:06.404Z,3.10
2023-04-22T17:11:33.240Z,2.87
2023-04-22T17:13:59.864Z,3.70
2023-04-22T17:16:26.666Z,3.37
2023-04-22T17:18:53.520Z,3.10
2023-04-22T17:21:23.127Z,3.27
2023-04-22T17:23:50.531Z,3.53
2023-04-22T17:26:17.166Z,3.20
2023-04-22T17:28:43.787Z,7.50
2023-04-22T17:31:10.611Z,14.93
2023-04-22T17:33:37.717Z,10.00
2023-04-22T17:36:04.558Z,9.37
2023-04-22T17:38:31.386Z,8.70
2023-04-22T17:40:58.903Z,7.23
2023-04-22T17:43:26.081Z,3.63
2023-04-22T17:45:52.838Z,6.20
2023-04-22T17:48:19.546Z,5.30
2023-04-22T17:50:46.294Z,4.77
2023-04-22T17:53:12.993Z,4.07
2023-04-22T17:55:40.236Z,4.27
2023-04-22T17:58:06.916Z,3.87
2023-04-22T18:00:35.192Z,3.17
2023-04-22T18:03:02.204Z,2.60
2023-04-22T18:05:28.989Z,3.40
2023-04-22T18:08:02.239Z,3.77
2023-04-22T18:10:29.962Z,3.50
2023-04-22T18:12:56.651Z,4.07
2023-04-22T18:15:23.858Z,3.33
2023-04-22T18:17:51.134Z,4.17
2023-04-22T18:20:19.370Z,3.30
2023-04-22T18:22:52.210Z,3.13
2023-04-22T18:25:18.995Z,3.47
2023-04-22T18:27:46.226Z,3.40
2023-04-22T18:30:13.349Z,3.67
2023-04-22T18:32:40.293Z,3.10
2023-04-22T18:35:07.627Z,3.03
2023-04-22T18:37:34.537Z,2.70
2023-04-22T18:40:02.350Z,2.47
2023-04-22T18:42:29.818Z,2.40
2023-04-22T18:44:57.257Z,3.00
2023-04-22T18:47:23.928Z,2.30
2023-04-22T18:49:50.712Z,2.50
2023-04-22T18:52:18.147Z,2.63
2023-04-22T18:54:44.839Z,2.00
2023-04-22T18:57:11.504Z,2.37
2023-04-22T18:59:38.387Z,2.20
2023-04-22T19:02:05.416Z,2.83
2023-04-22T19:04:32.901Z,2.73
2023-04-22T19:07:00.834Z,2.33
2023-04-22T19:09:27.608Z,2.43
2023-04-22T19:11:54.497Z,2.63
2023-04-22T19:14:21.227Z,1.93
2023-04-22T19:16:47.868Z,2.30
2023-04-22T19:19:14.507Z,2.33
2023-04-22T19:21:41.520Z,2.00
2023-04-22T19:24:09.561Z,2.20
2023-04-22T19:26:36.342Z,2.37
2023-04-22T19:29:03.154Z,2.13
2023-04-22T19:31:30.186Z,2.17
2023-04-22T19:33:57.000Z,2.37
2023-04-22T19:36:24.364Z,2.70
2023-04-22T19:38:51.134Z,3.10
2023-04-22T19:41:17.791Z,2.63
2023-04-22T19:43:44.458Z,2.57
2023-04-22T19:46:11.618Z,2.90
2023-04-22T19:48:38.492Z,2.53
2023-04-22T19:51:06.070Z,2.50
2023-04-22T19:53:33.569Z,2.40
2023-04-22T19:56:00.447Z,2.80
2023-04-22T19:58:28.487Z,3.50
2023-04-22T20:00:55.822Z,2.93
2023-04-22T20:03:23.370Z,3.23
2023-04-22T20:05:50.588Z,3.10
2023-04-22T20:08:19.629Z,3.10
2023-04-22T20:10:49.633Z,3.10
2023-04-22T20:13:17.309Z,3.20
2023-04-22T20:15:44.408Z,3.27
2023-04-22T20:18:11.877Z,3.70
2023-04-22T20:20:41.047Z,5.90
2023-04-22T20:23:12.573Z,6.07
2023-04-22T20:25:44.127Z,6.80
2023-04-22T20:28:11.193Z,7.47
2023-04-22T20:30:38.268Z,9.67
2023-04-22T20:33:05.283Z,9.70
2023-04-22T20:35:32.214Z,9.70
2023-04-22T20:38:00.059Z,10.40
2023-04-22T20:40:26.862Z,12.10
2023-04-22T20:42:56.992Z,12.60
2023-04-22T20:45:24.410Z,14.20
2023-04-22T20:47:51.460Z,13.33
2023-04-22T20:50:18.916Z,14.70
2023-04-22T20:52:45.604Z,13.83
2023-04-22T20:55:12.476Z,14.87
2023-04-22T20:57:39.598Z,16.00
2023-04-22T21:00:07.248Z,15.17
2023-04-22T21:02:35.215Z,15.63
2023-04-22T21:05:03.796Z,16.40
2023-04-22T21:07:31.440Z,18.00
2023-04-22T21:09:58.249Z,19.20
2023-04-22T21:12:25.428Z,19.37
2023-04-22T21:14:52.877Z,19.17
2023-04-22T21:17:22.896Z,20.50
2023-04-22T21:19:50.870Z,20.70
2023-04-22T21:22:21.113Z,20.20
2023-04-22T21:24:49.437Z,20.20
2023-04-22T21:27:21.744Z,20.57
2023-04-22T21:29:49.333Z,20.97
2023-04-22T21:32:16.954Z,22.03
2023-04-22T21:34:44.454Z,21.80
2023-04-22T21:37:11.761Z,20.03
2023-04-22T21:39:38.514Z,21.93
2023-04-22T21:42:07.511Z,23.40
2023-04-22T21:44:36.087Z,21.90
2023-04-22T21:47:03.499Z,21.23
2023-04-22T21:49:30.175Z,17.50
2023-04-22T21:51:57.002Z,16.97
2023-04-22T21:54:23.749Z,18.10
2023-04-22T21:56:50.945Z,18.80
2023-04-22T21:59:17.638Z,19.00
2023-04-22T22:01:44.477Z,18.30
2023-04-22T22:04:13.910Z,17.97
2023-04-22T22:06:43.169Z,17.57
2023-04-22T22:09:10.010Z,19.30
2023-04-22T22:11:36.714Z,19.10
2023-04-22T22:14:03.535Z,18.60
2023-04-22T22:16:30.825Z,19.73
2023-04-22T22:18:58.188Z,18.93
2023-04-22T22:21:25.082Z,19.80
2023-04-22T22:23:51.914Z,19.60
2023-04-22T22:26:18.904Z,20.80
2023-04-22T22:28:45.572Z,22.30
2023-04-22T22:31:12.341Z,22.80
2023-04-22T22:33:39.044Z,22.80
2023-04-22T22:36:05.938Z,27.60
2023-04-22T22:38:32.617Z,27.23
2023-04-22T22:40:59.251Z,28.40
2023-04-22T22:43:26.821Z,26.50
2023-04-22T22:45:53.744Z,26.90
2023-04-22T22:48:20.517Z,25.60
2023-04-22T22:50:47.391Z,25.00
2023-04-22T22:53:14.006Z,24.47
2023-04-22T22:55:40.685Z,24.97
2023-04-22T22:58:07.386Z,25.90
2023-04-22T23:00:34.167Z,25.37
2023-04-22T23:03:01.004Z,23.87
2023-04-22T23:05:27.971Z,23.87
2023-04-22T23:07:54.591Z,22.63
2023-04-22T23:10:21.311Z,23.83
2023-04-22T23:12:47.924Z,21.53
2023-04-22T23:15:15.133Z,22.30
2023-04-22T23:17:41.767Z,23.03
2023-04-22T23:20:11.970Z,22.70
2023-04-22T23:22:40.465Z,24.77
2023-04-22T23:25:08.429Z,25.57
2023-04-22T23:27:35.916Z,25.13
2023-04-22T23:30:04.421Z,22.80
2023-04-22T23:32:32.882Z,22.30
2023-04-22T23:35:01.584Z,23.40
2023-04-22T23:37:29.216Z,21.47
2023-04-22T23:39:56.018Z,23.83
2023-04-22T23:42:22.692Z,22.73
2023-04-22T23:44:49.565Z,23.70
2023-04-22T23:47:17.211Z,23.90
2023-04-22T23:49:43.963Z,24.77
2023-04-22T23:52:12.693Z,23.30
2023-04-22T23:54:40.387Z,22.67
2023-04-22T23:57:07.595Z,23.30
2023-04-22T23:59:34.571Z,22.73
